Time;durP1;ratioP1;P1;durP2;ratioP2;P2;SDS_P1;SDS_P2;PMS_P1;PMS_P2;Temp;Humidity;BMP_temperature;BMP_pressure;BME280_temperature;BME280_humidity;BME280_pressure;Samples;Min_cycle;Max_cycle;Signal;HPM_P1;HPM_P2
2022/05/16 00:02:23;;;;;;;0.40;0.20;;;15.10;93.80;;;;;;5097297;28;20469;-91
2022/05/16 00:04:50;;;;;;;0.40;0.20;;;15.20;93.80;;;;;;5097691;28;20473;-92
2022/05/16 00:07:18;;;;;;;0.40;0.20;;;15.10;93.90;;;;;;5095218;28;20466;-91
2022/05/16 00:09:46;;;;;;;0.40;0.20;;;15.00;94.50;;;;;;5098909;28;20479;-91
2022/05/16 00:12:18;;;;;;;0.40;0.20;;;15.00;94.90;;;;;;5100772;28;20476;-91
2022/05/16 00:14:45;;;;;;;0.30;0.20;;;14.90;95.70;;;;;;5089688;28;20455;-92
2022/05/16 00:17:13;;;;;;;0.33;0.20;;;14.70;96.00;;;;;;5101536;28;20480;-90
2022/05/16 00:19:41;;;;;;;0.40;0.20;;;14.60;97.30;;;;;;5092420;28;20478;-92
2022/05/16 00:22:09;;;;;;;0.33;0.20;;;14.50;97.10;;;;;;5103006;28;20450;-91
2022/05/16 00:24:39;;;;;;;0.37;0.20;;;14.30;98.20;;;;;;5094754;28;20442;-91
2022/05/16 00:27:06;;;;;;;0.40;0.20;;;14.30;98.60;;;;;;5107089;28;20432;-92
2022/05/16 00:29:34;;;;;;;0.30;0.20;;;14.00;99.10;;;;;;5098124;28;20480;-91
2022/05/16 00:32:02;;;;;;;0.30;0.20;;;13.90;99.90;;;;;;5094279;28;20436;-91
2022/05/16 00:34:29;;;;;;;0.40;0.23;;;13.80;99.90;;;;;;5098356;28;20446;-92
2022/05/16 00:36:56;;;;;;;0.37;0.20;;;13.70;99.90;;;;;;5096596;28;20444;-91
2022/05/16 00:39:23;;;;;;;0.30;0.20;;;13.60;99.90;;;;;;5105637;28;20490;-91
2022/05/16 00:41:52;;;;;;;0.40;0.20;;;13.40;99.90;;;;;;5102649;28;20467;-91
2022/05/16 00:44:20;;;;;;;0.30;0.20;;;13.40;99.90;;;;;;5110169;28;20483;-91
2022/05/16 00:46:50;;;;;;;0.30;0.20;;;13.40;99.90;;;;;;5103172;28;20446;-91
2022/05/16 00:49:27;;;;;;;0.30;0.20;;;13.40;99.90;;;;;;5108439;28;20446;-91
2022/05/16 00:51:59;;;;;;;0.40;0.20;;;13.30;99.90;;;;;;5103225;28;20508;-91
2022/05/16 00:54:31;;;;;;;0.40;0.20;;;13.50;99.90;;;;;;5104484;28;20472;-91
2022/05/16 00:57:04;;;;;;;0.30;0.20;;;13.40;99.90;;;;;;5106089;28;20436;-90
2022/05/16 00:59:39;;;;;;;0.30;0.20;;;13.20;99.90;;;;;;5105422;28;20500;-91
2022/05/16 01:05:01;;;;;;;0.30;0.20;;;13.10;99.90;;;;;;5066657;28;20468;-93
2022/05/16 01:07:31;;;;;;;0.30;0.20;;;13.10;99.90;;;;;;5098085;28;20465;-93
2022/05/16 01:09:58;;;;;;;0.30;0.20;;;13.00;99.90;;;;;;5095135;28;20947;-93
2022/05/16 01:12:31;;;;;;;0.30;0.20;;;13.00;99.90;;;;;;5100540;28;20454;-93
2022/05/16 01:15:00;;;;;;;0.40;0.20;;;12.90;99.90;;;;;;5097590;28;20503;-93
2022/05/16 01:17:29;;;;;;;0.30;0.20;;;12.80;99.90;;;;;;5090818;28;20459;-92
2022/05/16 01:19:56;;;;;;;0.40;0.20;;;12.70;99.90;;;;;;5092598;28;20488;-93
2022/05/16 01:22:31;;;;;;;0.40;0.20;;;12.80;99.90;;;;;;5089330;28;20500;-93
2022/05/16 01:25:02;;;;;;;0.30;0.20;;;12.80;99.90;;;;;;5095272;28;20462;-93
2022/05/16 01:27:39;;;;;;;0.40;0.20;;;12.80;99.90;;;;;;5094017;28;20463;-93
2022/05/16 01:30:07;;;;;;;0.30;0.20;;;12.80;99.90;;;;;;5090008;28;20447;-92
2022/05/16 01:32:34;;;;;;;0.30;0.20;;;12.60;99.90;;;;;;5090927;28;20467;-93
2022/05/16 01:35:01;;;;;;;0.30;0.20;;;12.60;99.90;;;;;;5080517;28;20730;-92
2022/05/16 01:40:12;;;;;;;0.30;0.20;;;12.30;99.90;;;;;;5077198;28;21224;-92
2022/05/16 01:42:39;;;;;;;0.30;0.20;;;12.50;99.90;;;;;;5076595;28;20488;-92
2022/05/16 01:45:07;;;;;;;0.30;0.20;;;12.40;99.90;;;;;;5077132;28;21063;-92
2022/05/16 01:47:34;;;;;;;0.30;0.20;;;12.30;99.90;;;;;;5079834;28;20561;-92
2022/05/16 01:50:01;;;;;;;0.30;0.20;;;12.20;99.90;;;;;;5075638;28;20983;-93
2022/05/16 01:52:28;;;;;;;0.30;0.20;;;12.20;99.90;;;;;;5076491;28;20903;-92
2022/05/16 01:54:56;;;;;;;0.30;0.20;;;12.10;99.90;;;;;;5076507;28;20463;-92
2022/05/16 01:57:23;;;;;;;0.30;0.20;;;12.10;99.90;;;;;;5092693;28;20714;-92
2022/05/16 01:59:50;;;;;;;0.30;0.20;;;12.10;99.90;;;;;;5093798;28;20492;-92
2022/05/16 02:02:17;;;;;;;0.30;0.20;;;12.20;99.90;;;;;;5094729;28;20472;-92
2022/05/16 02:04:44;;;;;;;0.30;0.20;;;12.10;99.90;;;;;;5095298;28;20461;-93
2022/05/16 02:07:11;;;;;;;0.30;0.20;;;12.00;99.90;;;;;;5085810;28;20517;-93
2022/05/16 02:09:38;;;;;;;0.30;0.20;;;12.00;99.90;;;;;;5081923;28;20818;-93
2022/05/16 02:12:07;;;;;;;0.30;0.20;;;12.00;99.90;;;;;;5081631;28;20486;-93
2022/05/16 02:14:35;;;;;;;0.30;0.20;;;12.10;99.90;;;;;;5076173;28;20546;-92
2022/05/16 02:17:02;;;;;;;0.30;0.20;;;12.00;99.90;;;;;;5071990;28;20526;-92
2022/05/16 02:19:28;;;;;;;0.30;0.20;;;12.10;99.90;;;;;;5072960;28;20502;-93
2022/05/16 02:24:40;;;;;;;0.30;0.20;;;12.20;99.90;;;;;;5076760;28;20592;-93
2022/05/16 02:27:10;;;;;;;0.30;0.20;;;12.10;99.90;;;;;;5070859;28;20459;-93
2022/05/16 02:29:37;;;;;;;0.30;0.20;;;12.20;99.90;;;;;;5073986;28;20814;-93
2022/05/16 02:32:05;;;;;;;0.30;0.20;;;12.20;99.90;;;;;;5076403;28;20552;-93
2022/05/16 02:34:32;;;;;;;0.30;0.20;;;12.30;99.90;;;;;;5075908;28;20887;-93
2022/05/16 02:37:00;;;;;;;0.30;0.20;;;12.40;99.90;;;;;;5077357;28;20477;-92
2022/05/16 02:39:27;;;;;;;0.30;0.20;;;12.40;99.90;;;;;;5078740;28;20469;-93
2022/05/16 02:41:54;;;;;;;0.30;0.20;;;12.40;99.90;;;;;;5076985;28;21756;-93
2022/05/16 02:44:22;;;;;;;0.30;0.20;;;12.40;99.90;;;;;;5071919;28;20471;-92
2022/05/16 02:46:50;;;;;;;0.30;0.20;;;12.40;99.90;;;;;;5073760;28;20534;-92
2022/05/16 02:49:17;;;;;;;0.30;0.20;;;12.30;99.90;;;;;;5075897;28;20522;-93
2022/05/16 02:51:45;;;;;;;0.30;0.20;;;12.30;99.90;;;;;;5080132;28;20967;-93
2022/05/16 02:54:11;;;;;;;0.30;0.20;;;12.20;99.90;;;;;;5073678;28;21090;-91
2022/05/16 02:56:38;;;;;;;0.30;0.20;;;12.10;99.90;;;;;;5072954;28;20458;-93
2022/05/16 02:59:06;;;;;;;0.30;0.20;;;12.10;99.90;;;;;;5075429;28;20465;-93
2022/05/16 03:01:35;;;;;;;0.30;0.20;;;12.10;99.90;;;;;;5071508;28;20519;-92
2022/05/16 03:04:02;;;;;;;0.30;0.20;;;12.00;99.90;;;;;;5067704;28;20490;-92
2022/05/16 03:06:29;;;;;;;0.30;0.20;;;12.10;99.90;;;;;;5075839;28;20474;-93
2022/05/16 03:08:56;;;;;;;0.30;0.20;;;12.00;99.90;;;;;;5070608;28;20495;-93
2022/05/16 03:11:23;;;;;;;0.30;0.20;;;12.10;99.90;;;;;;5072734;28;20498;-91
2022/05/16 03:13:51;;;;;;;0.30;0.20;;;11.90;99.90;;;;;;5068068;28;20580;-92
2022/05/16 03:16:18;;;;;;;0.30;0.20;;;11.90;99.90;;;;;;5075955;28;20481;-92
2022/05/16 03:18:47;;;;;;;0.30;0.20;;;11.90;99.90;;;;;;5071013;28;20460;-92
2022/05/16 03:21:15;;;;;;;0.30;0.20;;;11.90;99.90;;;;;;5070414;28;20993;-92
2022/05/16 03:23:42;;;;;;;0.30;0.20;;;11.90;99.90;;;;;;5074393;28;20990;-93
2022/05/16 03:26:11;;;;;;;0.30;0.20;;;11.90;99.90;;;;;;5073029;28;20519;-93
2022/05/16 03:28:37;;;;;;;0.30;0.20;;;11.90;99.90;;;;;;5075426;28;20460;-93
2022/05/16 03:31:05;;;;;;;0.30;0.20;;;11.80;99.90;;;;;;5075934;28;20492;-93
2022/05/16 03:33:32;;;;;;;0.30;0.20;;;12.00;99.90;;;;;;5079917;28;20544;-92
2022/05/16 03:36:00;;;;;;;0.30;0.20;;;12.10;99.90;;;;;;5071962;28;20474;-93
2022/05/16 03:41:14;;;;;;;0.30;0.20;;;12.10;99.90;;;;;;5096702;28;20449;-92
2022/05/16 03:43:42;;;;;;;0.30;0.20;;;12.20;99.90;;;;;;5088416;28;20505;-92
2022/05/16 03:46:10;;;;;;;0.30;0.20;;;12.20;99.90;;;;;;5072981;28;20553;-93
2022/05/16 03:48:37;;;;;;;0.30;0.20;;;12.20;99.90;;;;;;5077279;28;20534;-93
2022/05/16 03:51:07;;;;;;;0.30;0.20;;;12.20;99.90;;;;;;5074585;28;20998;-92
2022/05/16 03:53:36;;;;;;;0.30;0.20;;;12.20;99.90;;;;;;5072214;28;20931;-93
2022/05/16 03:56:03;;;;;;;0.30;0.20;;;12.30;99.90;;;;;;5067978;28;20465;-92
2022/05/16 03:58:30;;;;;;;0.30;0.20;;;12.40;99.90;;;;;;5077261;28;20458;-93
2022/05/16 04:00:58;;;;;;;0.30;0.20;;;12.50;99.90;;;;;;5068464;28;20965;-93
2022/05/16 04:03:25;;;;;;;0.30;0.20;;;12.50;99.90;;;;;;5070166;28;20924;-91
2022/05/16 04:05:52;;;;;;;0.30;0.20;;;12.40;99.90;;;;;;5071729;28;20513;-93
2022/05/16 04:08:21;;;;;;;0.30;0.20;;;12.50;99.90;;;;;;5070805;28;20474;-93
2022/05/16 04:10:48;;;;;;;0.30;0.20;;;12.50;99.90;;;;;;5069376;28;20451;-92
2022/05/16 04:13:15;;;;;;;0.30;0.20;;;12.60;99.90;;;;;;5074661;28;20517;-92
2022/05/16 04:15:42;;;;;;;0.30;0.20;;;12.90;99.90;;;;;;5092497;28;20460;-92
2022/05/16 04:18:09;;;;;;;0.30;0.20;;;13.00;99.90;;;;;;5093844;28;20533;-93
2022/05/16 04:20:36;;;;;;;0.30;0.20;;;13.20;99.90;;;;;;5094211;28;20849;-93
2022/05/16 04:23:03;;;;;;;0.30;0.20;;;13.30;99.90;;;;;;5079722;28;20492;-92
2022/05/16 04:25:32;;;;;;;0.30;0.20;;;13.20;99.90;;;;;;5074870;28;20918;-93
2022/05/16 04:27:59;;;;;;;0.30;0.20;;;13.50;99.90;;;;;;5070042;28;20491;-92
2022/05/16 04:30:26;;;;;;;0.30;0.20;;;13.60;99.90;;;;;;5073570;28;20486;-92
2022/05/16 04:32:53;;;;;;;0.30;0.20;;;13.60;99.90;;;;;;5068750;28;20492;-94
2022/05/16 04:35:20;;;;;;;0.30;0.20;;;13.90;99.90;;;;;;5073204;28;20852;-93
2022/05/16 04:37:47;;;;;;;0.30;0.20;;;13.80;99.90;;;;;;5065760;28;20512;-94
2022/05/16 04:40:15;;;;;;;0.30;0.20;;;13.70;99.90;;;;;;5065742;28;20495;-94
2022/05/16 04:42:43;;;;;;;0.30;0.20;;;13.40;99.90;;;;;;5069583;28;20891;-93
2022/05/16 04:45:16;;;;;;;0.30;0.20;;;13.50;99.90;;;;;;5066109;28;20524;-93
2022/05/16 04:47:43;;;;;;;0.30;0.20;;;13.40;99.90;;;;;;5070269;28;20622;-92
2022/05/16 04:50:12;;;;;;;0.30;0.20;;;13.50;99.90;;;;;;5066824;28;20814;-93
2022/05/16 04:52:39;;;;;;;0.30;0.20;;;13.50;99.90;;;;;;5071923;28;20494;-94
2022/05/16 04:55:07;;;;;;;0.30;0.20;;;13.60;99.90;;;;;;5063944;28;20476;-94
2022/05/16 04:57:35;;;;;;;0.30;0.20;;;13.80;99.90;;;;;;5070036;28;20519;-93
2022/05/16 05:00:06;;;;;;;0.30;0.20;;;13.90;99.90;;;;;;5068349;28;20497;-93
2022/05/16 05:02:33;;;;;;;0.30;0.20;;;13.90;99.90;;;;;;5072988;28;20453;-93
2022/05/16 05:05:00;;;;;;;0.30;0.20;;;13.90;99.90;;;;;;5071544;28;20458;-93
2022/05/16 05:07:28;;;;;;;0.30;0.20;;;14.00;99.90;;;;;;5089606;28;20456;-95
2022/05/16 05:15:25;;;;;;;0.30;0.20;;;14.00;99.90;;;;;;5072289;28;20453;-94
2022/05/16 05:17:52;;;;;;;0.30;0.20;;;14.10;99.90;;;;;;5079322;28;20461;-94
2022/05/16 05:20:19;;;;;;;0.30;0.20;;;14.00;99.90;;;;;;5068528;28;20488;-94
2022/05/16 05:22:48;;;;;;;0.30;0.20;;;14.20;99.90;;;;;;5071811;28;20491;-93
2022/05/16 05:25:17;;;;;;;0.30;0.20;;;14.40;99.90;;;;;;5071707;28;20909;-93
2022/05/16 05:27:45;;;;;;;0.30;0.20;;;14.50;99.90;;;;;;5073348;28;20469;-93
2022/05/16 05:30:14;;;;;;;0.30;0.20;;;14.80;99.90;;;;;;5068636;28;20460;-94
2022/05/16 05:32:43;;;;;;;0.30;0.20;;;14.80;99.90;;;;;;5075110;28;20498;-94
2022/05/16 05:35:11;;;;;;;0.30;0.20;;;15.10;99.90;;;;;;5072802;28;20482;-94
2022/05/16 05:37:39;;;;;;;0.30;0.20;;;15.10;99.90;;;;;;5068023;28;20463;-94
2022/05/16 05:40:07;;;;;;;0.30;0.20;;;15.10;99.90;;;;;;5070706;28;20473;-94
2022/05/16 05:42:35;;;;;;;0.30;0.20;;;15.40;99.90;;;;;;5071793;28;20495;-92
2022/05/16 05:45:04;;;;;;;0.40;0.30;;;15.40;99.90;;;;;;5072565;28;20517;-93
2022/05/16 05:47:31;;;;;;;0.30;0.20;;;15.60;99.90;;;;;;5074093;28;20468;-92
2022/05/16 05:50:01;;;;;;;0.30;0.20;;;15.70;99.90;;;;;;5071539;28;20461;-93
2022/05/16 05:52:29;;;;;;;0.30;0.20;;;15.90;99.90;;;;;;5069692;28;20898;-92
2022/05/16 05:54:56;;;;;;;0.40;0.20;;;16.10;99.90;;;;;;5072766;28;20576;-92
2022/05/16 05:57:25;;;;;;;0.40;0.20;;;16.40;99.90;;;;;;5069720;28;20469;-93
2022/05/16 05:59:53;;;;;;;0.30;0.20;;;16.60;99.90;;;;;;5074911;28;20465;-93
2022/05/16 06:02:20;;;;;;;0.30;0.20;;;16.60;99.90;;;;;;5071585;28;20457;-93
2022/05/16 06:04:51;;;;;;;0.30;0.20;;;16.80;99.90;;;;;;5066752;28;20587;-93
2022/05/16 06:07:19;;;;;;;0.30;0.20;;;17.00;99.90;;;;;;5070120;28;20855;-94
2022/05/16 06:09:46;;;;;;;0.30;0.20;;;17.20;99.90;;;;;;5073444;28;20974;-93
2022/05/16 06:12:13;;;;;;;0.30;0.20;;;17.10;99.90;;;;;;5069621;28;20489;-92
2022/05/16 06:14:43;;;;;;;0.33;0.20;;;17.00;99.90;;;;;;5068485;28;20950;-91
2022/05/16 06:17:11;;;;;;;0.30;0.20;;;17.20;99.90;;;;;;5072127;28;20464;-91
2022/05/16 06:19:38;;;;;;;0.40;0.20;;;17.40;99.90;;;;;;5074266;28;20461;-91
2022/05/16 06:22:05;;;;;;;0.40;0.20;;;17.50;99.90;;;;;;5073718;28;20465;-91
2022/05/16 06:27:18;;;;;;;0.40;0.20;;;17.70;99.90;;;;;;5064818;28;20455;-90
2022/05/16 06:29:46;;;;;;;0.40;0.20;;;17.70;99.90;;;;;;5066427;28;20963;-91
2022/05/16 06:32:13;;;;;;;0.40;0.20;;;17.70;99.90;;;;;;5084367;28;20478;-92
2022/05/16 06:34:40;;;;;;;0.40;0.20;;;18.20;99.90;;;;;;5082588;28;20466;-91
2022/05/16 06:37:07;;;;;;;0.40;0.20;;;18.30;98.60;;;;;;5066366;28;20949;-91
2022/05/16 06:39:35;;;;;;;0.40;0.20;;;18.60;98.80;;;;;;5079338;28;21098;-91
2022/05/16 06:42:02;;;;;;;0.40;0.20;;;18.70;98.10;;;;;;5077421;28;20529;-91
2022/05/16 06:44:30;;;;;;;0.40;0.20;;;18.70;98.10;;;;;;5076451;28;20752;-91
2022/05/16 06:46:57;;;;;;;0.40;0.20;;;18.70;96.60;;;;;;5070403;28;20468;-91
2022/05/16 06:49:24;;;;;;;0.40;0.20;;;18.60;98.40;;;;;;5069963;28;20471;-92
2022/05/16 06:51:51;;;;;;;0.40;0.20;;;18.40;97.70;;;;;;5082636;28;20462;-91
2022/05/16 06:54:18;;;;;;;0.40;0.20;;;18.70;98.60;;;;;;5066572;28;20461;-90
2022/05/16 06:56:46;;;;;;;0.40;0.20;;;18.80;96.20;;;;;;5069203;28;20465;-93
2022/05/16 06:59:13;;;;;;;0.60;0.43;;;18.80;97.60;;;;;;5073126;28;20460;-93
2022/05/16 07:01:41;;;;;;;0.40;0.20;;;19.00;97.70;;;;;;5067259;28;20469;-93
2022/05/16 07:04:08;;;;;;;0.40;0.20;;;19.30;95.90;;;;;;5064947;28;20927;-93
2022/05/16 07:06:36;;;;;;;0.40;0.20;;;19.20;97.10;;;;;;5069592;28;20536;-93
2022/05/16 07:09:03;;;;;;;0.40;0.20;;;19.50;96.30;;;;;;5075857;28;20464;-93
2022/05/16 07:11:32;;;;;;;0.40;0.20;;;19.60;94.60;;;;;;5090325;28;20458;-93
2022/05/16 07:14:01;;;;;;;0.40;0.20;;;19.80;93.50;;;;;;5091135;28;20478;-92
2022/05/16 07:16:28;;;;;;;0.40;0.20;;;20.00;95.20;;;;;;5082586;28;20826;-93
2022/05/16 07:18:55;;;;;;;0.40;0.30;;;20.00;95.20;;;;;;5073976;28;20545;-92
2022/05/16 07:21:22;;;;;;;0.40;0.20;;;19.80;94.10;;;;;;5070466;28;20466;-93
2022/05/16 07:23:50;;;;;;;0.40;0.20;;;19.80;94.10;;;;;;5072368;28;20483;-93
2022/05/16 07:29:02;;;;;;;0.40;0.20;;;19.70;93.60;;;;;;5074063;28;20595;-92
2022/05/16 07:31:29;;;;;;;0.40;0.20;;;19.80;92.50;;;;;;5075863;28;20457;-92
2022/05/16 07:33:58;;;;;;;0.40;0.20;;;20.10;93.40;;;;;;5071808;28;20993;-93
2022/05/16 07:36:25;;;;;;;0.40;0.20;;;20.10;90.30;;;;;;5069090;28;20472;-93
2022/05/16 07:38:52;;;;;;;0.40;0.20;;;20.70;91.00;;;;;;5072314;28;20534;-94
2022/05/16 07:41:19;;;;;;;0.40;0.20;;;21.10;91.20;;;;;;5067550;28;20526;-93
2022/05/16 07:43:46;;;;;;;0.40;0.20;;;21.40;90.80;;;;;;5077576;28;20540;-94
2022/05/16 07:46:14;;;;;;;0.40;0.20;;;21.40;85.80;;;;;;5065869;28;20481;-93
2022/05/16 07:48:42;;;;;;;0.40;0.20;;;21.60;87.70;;;;;;5075844;28;20467;-94
2022/05/16 07:51:09;;;;;;;0.40;0.20;;;21.50;87.70;;;;;;5078910;28;20953;-94
2022/05/16 07:53:36;;;;;;;0.40;0.20;;;21.10;87.00;;;;;;5069940;28;20494;-93
2022/05/16 07:56:04;;;;;;;0.40;0.20;;;20.90;87.30;;;;;;5070170;28;20466;-93
2022/05/16 07:58:32;;;;;;;0.40;0.20;;;20.70;88.40;;;;;;5067312;28;20493;-93
2022/05/16 08:01:00;;;;;;;0.40;0.20;;;20.60;89.20;;;;;;5068856;28;20488;-93
2022/05/16 08:03:30;;;;;;;0.40;0.20;;;20.50;89.70;;;;;;5096589;28;20457;-94
2022/05/16 08:05:58;;;;;;;0.40;0.20;;;20.40;88.20;;;;;;5091246;28;20447;-94
2022/05/16 08:11:11;;;;;;;0.40;0.20;;;20.50;90.30;;;;;;5096104;28;20462;-92
2022/05/16 08:13:41;;;;;;;0.40;0.20;;;20.50;86.80;;;;;;5082010;28;20548;-93
2022/05/16 08:16:09;;;;;;;0.40;0.20;;;20.70;89.80;;;;;;5084501;28;20895;-94
2022/05/16 08:18:37;;;;;;;0.40;0.20;;;21.20;90.30;;;;;;5078472;28;20551;-94
2022/05/16 08:21:04;;;;;;;0.40;0.20;;;21.60;86.70;;;;;;5064813;28;20539;-94
2022/05/16 08:23:33;;;;;;;0.40;0.20;;;21.70;85.10;;;;;;5074459;28;20502;-94
2022/05/16 08:26:03;;;;;;;0.40;0.20;;;22.10;86.10;;;;;;5073020;28;20957;-92
2022/05/16 08:28:31;;;;;;;0.40;0.20;;;22.00;86.70;;;;;;5074593;28;20459;-91
2022/05/16 08:30:58;;;;;;;0.40;0.20;;;21.90;85.40;;;;;;5072008;28;20496;-91
2022/05/16 08:33:26;;;;;;;0.40;0.20;;;22.00;82.80;;;;;;5071387;28;20490;-92
2022/05/16 08:41:28;;;;;;;0.40;0.20;;;22.00;88.50;;;;;;5071838;28;20498;-92
2022/05/16 08:44:07;;;;;;;0.40;0.20;;;21.70;84.40;;;;;;5069508;28;20459;-92
2022/05/16 08:46:37;;;;;;;0.40;0.20;;;21.80;84.80;;;;;;5067550;28;20563;-92
2022/05/16 08:49:14;;;;;;;0.40;0.20;;;22.00;81.80;;;;;;5072452;28;20460;-92
2022/05/16 08:51:46;;;;;;;0.40;0.20;;;21.70;85.50;;;;;;5079481;28;20436;-94
2022/05/16 08:54:26;;;;;;;0.40;0.20;;;22.40;86.30;;;;;;5089484;28;20516;-92
2022/05/16 08:56:54;;;;;;;0.40;0.20;;;22.70;85.40;;;;;;5090551;28;20508;-93
2022/05/16 08:59:26;;;;;;;0.40;0.20;;;22.40;80.10;;;;;;5087433;28;20451;-93
2022/05/16 09:01:56;;;;;;;0.40;0.20;;;22.70;82.70;;;;;;5101257;28;20480;-92
2022/05/16 09:04:26;;;;;;;0.40;0.20;;;22.60;82.40;;;;;;5100137;28;20462;-93
2022/05/16 09:07:02;;;;;;;0.40;0.20;;;22.70;79.70;;;;;;5077793;28;20495;-93
2022/05/16 09:09:41;;;;;;;0.40;0.20;;;22.80;82.50;;;;;;5077755;28;20470;-93
2022/05/16 09:12:16;;;;;;;0.40;0.20;;;22.40;79.20;;;;;;5080617;28;20462;-93
2022/05/16 09:14:56;;;;;;;0.40;0.20;;;22.30;79.80;;;;;;5083043;28;20968;-94
2022/05/16 09:17:32;;;;;;;0.40;0.20;;;22.60;81.90;;;;;;5077631;28;20524;-93
2022/05/16 09:20:13;;;;;;;0.40;0.20;;;22.50;80.50;;;;;;5078466;28;20511;-93
2022/05/16 09:22:46;;;;;;;0.40;0.20;;;22.10;83.30;;;;;;5075915;28;21148;-94
2022/05/16 09:25:19;;;;;;;0.40;0.20;;;22.60;83.00;;;;;;5071963;28;20849;-93
2022/05/16 09:30:35;;;;;;;0.40;0.20;;;23.30;84.60;;;;;;5069988;28;20538;-91
2022/05/16 09:33:09;;;;;;;0.40;0.30;;;23.60;79.90;;;;;;5076417;28;20475;-92
2022/05/16 09:35:46;;;;;;;0.40;0.20;;;23.80;77.90;;;;;;5077386;28;20488;-92
2022/05/16 09:38:16;;;;;;;0.40;0.20;;;23.90;80.00;;;;;;5067458;28;20494;-92
2022/05/16 09:41:01;;;;;;;0.40;0.20;;;24.50;80.10;;;;;;5068065;28;20491;-91
2022/05/16 09:43:33;;;;;;;0.40;0.20;;;24.70;77.70;;;;;;5085222;28;21093;-92
2022/05/16 09:46:18;;;;;;;0.40;0.20;;;24.70;72.00;;;;;;5088899;28;20439;-91
2022/05/16 09:48:45;;;;;;;0.40;0.20;;;24.20;72.30;;;;;;5086080;28;20977;-91
2022/05/16 09:51:15;;;;;;;0.40;0.20;;;23.90;77.20;;;;;;5077691;28;20471;-94
2022/05/16 09:53:44;;;;;;;0.40;0.20;;;24.20;72.90;;;;;;5077963;28;20494;-92
2022/05/16 09:56:22;;;;;;;0.40;0.20;;;24.10;77.90;;;;;;5068729;28;20503;-92
2022/05/16 09:58:52;;;;;;;0.40;0.20;;;23.60;76.70;;;;;;5073941;28;20532;-94
2022/05/16 10:01:32;;;;;;;0.40;0.20;;;23.50;80.30;;;;;;5066726;28;20467;-93
2022/05/16 10:04:15;;;;;;;0.40;0.20;;;23.00;75.60;;;;;;5082378;28;20583;-93
2022/05/16 10:06:44;;;;;;;0.40;0.20;;;22.90;79.00;;;;;;5069933;28;20834;-93
2022/05/16 10:09:15;;;;;;;0.40;0.20;;;23.10;79.70;;;;;;5072550;28;20454;-93
2022/05/16 10:11:52;;;;;;;0.40;0.20;;;23.40;82.10;;;;;;5075526;28;20978;-93
2022/05/16 10:14:20;;;;;;;0.40;0.20;;;23.90;78.50;;;;;;5080862;28;20584;-95
2022/05/16 10:16:54;;;;;;;0.40;0.20;;;24.10;76.90;;;;;;5081240;28;20471;-94
2022/05/16 10:19:26;;;;;;;0.40;0.30;;;24.20;78.70;;;;;;5075477;28;20490;-94
2022/05/16 10:21:56;;;;;;;0.40;0.20;;;24.80;77.50;;;;;;5072629;28;20460;-94
2022/05/16 10:24:32;;;;;;;0.40;0.20;;;25.10;78.00;;;;;;5067538;28;21070;-94
2022/05/16 10:27:06;;;;;;;0.40;0.20;;;25.60;79.20;;;;;;5070829;28;20455;-94
2022/05/16 10:29:35;;;;;;;0.40;0.20;;;25.50;75.60;;;;;;5083957;28;20451;-93
2022/05/16 10:34:54;;;;;;;0.40;0.20;;;25.30;72.60;;;;;;5082427;28;20551;-94
2022/05/16 10:37:22;;;;;;;0.40;0.20;;;25.70;74.30;;;;;;5095250;28;20456;-94
2022/05/16 10:39:54;;;;;;;1.00;0.60;;;26.00;76.50;;;;;;5090966;28;20456;-94
2022/05/16 10:42:27;;;;;;;0.40;0.20;;;26.00;72.60;;;;;;5083100;28;20520;-94
2022/05/16 10:45:01;;;;;;;0.40;0.20;;;26.40;71.60;;;;;;5076979;28;20983;-95
2022/05/16 10:47:31;;;;;;;0.40;0.20;;;26.30;72.20;;;;;;5065810;28;20521;-93
2022/05/16 10:50:07;;;;;;;0.40;0.30;;;26.30;71.80;;;;;;5069413;28;21001;-94
2022/05/16 10:52:39;;;;;;;0.40;0.20;;;25.70;69.80;;;;;;5066746;28;20458;-93
2022/05/16 10:55:08;;;;;;;0.40;0.20;;;25.40;70.30;;;;;;5066210;28;20495;-94
2022/05/16 10:57:56;;;;;;;0.40;0.20;;;25.60;73.40;;;;;;5066410;28;20919;-93
2022/05/16 11:00:35;;;;;;;0.40;0.20;;;25.70;70.60;;;;;;5071386;28;20841;-92
2022/05/16 11:03:35;;;;;;;0.40;0.20;;;25.70;69.10;;;;;;5089590;28;20509;-93
2022/05/16 11:06:25;;;;;;;0.40;0.20;;;25.80;69.00;;;;;;5079022;28;20462;-93
2022/05/16 11:08:59;;;;;;;0.40;0.20;;;25.50;72.10;;;;;;5074253;28;20472;-93
2022/05/16 11:11:33;;;;;;;0.40;0.20;;;25.40;69.90;;;;;;5075572;28;20563;-94
2022/05/16 11:14:08;;;;;;;0.40;0.20;;;25.50;70.70;;;;;;5067399;28;20990;-94
2022/05/16 11:16:38;;;;;;;0.40;0.20;;;25.30;74.30;;;;;;5073505;28;20447;-94
2022/05/16 11:19:17;;;;;;;0.40;0.20;;;25.00;73.90;;;;;;5067780;28;20468;-94
2022/05/16 11:21:50;;;;;;;0.40;0.20;;;25.30;74.60;;;;;;5090492;28;20452;-93
2022/05/16 11:24:36;;;;;;;0.40;0.20;;;25.80;73.80;;;;;;5090916;28;20494;-93
2022/05/16 11:27:11;;;;;;;0.40;0.20;;;26.10;69.50;;;;;;5091396;28;20462;-94
2022/05/16 11:29:48;;;;;;;0.40;0.20;;;26.50;68.40;;;;;;5092267;28;20459;-93
2022/05/16 11:32:30;;;;;;;0.40;0.20;;;26.60;65.30;;;;;;5092078;28;20468;-95
2022/05/16 11:35:05;;;;;;;0.40;0.20;;;27.00;65.10;;;;;;5073798;28;20482;-93
2022/05/16 11:37:57;;;;;;;0.40;0.20;;;27.10;66.60;;;;;;5077417;28;20504;-93
2022/05/16 11:40:32;;;;;;;0.40;0.20;;;27.40;62.70;;;;;;5070926;28;20775;-94
2022/05/16 11:43:16;;;;;;;0.40;0.20;;;27.70;64.10;;;;;;5071268;28;20452;-94
2022/05/16 11:46:27;;;;;;;0.40;0.20;;;27.50;65.20;;;;;;5074398;28;20504;-93
2022/05/16 11:49:15;;;;;;;0.40;0.20;;;27.50;68.10;;;;;;5005870;28;20477;-92
2022/05/16 11:51:54;;;;;;;0.40;0.20;;;27.30;70.10;;;;;;5010359;28;20447;-93
2022/05/16 11:54:26;;;;;;;0.40;0.20;;;27.00;65.00;;;;;;5054016;28;20503;-94
2022/05/16 12:02:47;;;;;;;0.40;0.20;;;26.60;71.90;;;;;;5072272;28;20483;-94
2022/05/16 12:05:34;;;;;;;0.40;0.20;;;26.50;64.90;;;;;;5070471;28;20546;-94
2022/05/16 12:08:04;;;;;;;0.40;0.20;;;26.50;65.00;;;;;;5066259;28;20472;-93
2022/05/16 12:10:33;;;;;;;0.40;0.20;;;26.30;66.00;;;;;;5072562;28;20462;-93
2022/05/16 12:13:23;;;;;;;0.40;0.20;;;26.50;66.80;;;;;;5087006;28;20545;-94
2022/05/16 12:16:18;;;;;;;0.40;0.20;;;26.70;70.30;;;;;;5074831;28;20471;-94
2022/05/16 12:18:48;;;;;;;0.40;0.20;;;26.20;66.40;;;;;;5069566;28;20439;-93
2022/05/16 12:21:23;;;;;;;0.40;0.20;;;26.00;70.50;;;;;;5084392;28;20470;-93
2022/05/16 12:24:06;;;;;;;0.40;0.20;;;25.80;69.60;;;;;;5068260;28;20491;-94
2022/05/16 12:27:03;;;;;;;0.40;0.20;;;25.60;69.50;;;;;;5067130;28;20432;-94
2022/05/16 12:29:38;;;;;;;0.40;0.20;;;25.60;69.50;;;;;;5065565;28;20444;-94
2022/05/16 12:32:07;;;;;;;0.40;0.20;;;26.00;73.30;;;;;;5070239;28;20466;-93
2022/05/16 12:34:47;;;;;;;0.40;0.20;;;26.40;72.40;;;;;;5085890;28;20482;-94
2022/05/16 12:37:17;;;;;;;0.40;0.20;;;26.70;72.80;;;;;;5073716;28;20470;-94
2022/05/16 12:39:55;;;;;;;0.40;0.20;;;26.60;73.80;;;;;;5087471;28;20902;-93
2022/05/16 12:42:51;;;;;;;0.40;0.20;;;26.60;71.50;;;;;;5075502;28;20483;-92
2022/05/16 12:45:33;;;;;;;0.40;0.20;;;26.70;70.30;;;;;;5065916;28;20451;-93
2022/05/16 12:48:28;;;;;;;0.40;0.20;;;26.40;71.80;;;;;;5079894;28;20462;-93
2022/05/16 12:51:25;;;;;;;0.40;0.20;;;26.40;70.70;;;;;;5077838;28;20541;-94
2022/05/16 12:54:31;;;;;;;0.40;0.20;;;26.50;74.00;;;;;;5077816;28;20501;-93
2022/05/16 12:57:00;;;;;;;0.40;0.20;;;26.40;64.50;;;;;;5052105;28;20443;-93
2022/05/16 12:59:52;;;;;;;0.40;0.30;;;26.30;64.60;;;;;;5072015;28;20455;-92
2022/05/16 13:02:26;;;;;;;0.40;0.20;;;26.30;70.10;;;;;;5063360;28;20549;-92
2022/05/16 13:05:13;;;;;;;0.40;0.20;;;26.30;69.20;;;;;;5065706;28;20926;-93
2022/05/16 13:07:53;;;;;;;0.40;0.20;;;26.40;67.90;;;;;;5079797;28;20466;-93
2022/05/16 13:10:30;;;;;;;0.40;0.20;;;26.40;65.20;;;;;;5078810;28;20470;-92
2022/05/16 13:13:05;;;;;;;0.40;0.20;;;26.30;68.00;;;;;;5105298;28;20418;-93
2022/05/16 13:15:38;;;;;;;0.40;0.20;;;26.60;68.90;;;;;;5106724;28;20500;-92
2022/05/16 13:18:26;;;;;;;0.40;0.20;;;26.80;67.60;;;;;;5099130;28;20478;-93
2022/05/16 13:20:57;;;;;;;0.40;0.20;;;26.30;65.10;;;;;;5073818;28;20522;-93
2022/05/16 13:23:24;;;;;;;0.40;0.20;;;26.30;65.40;;;;;;5068546;28;20495;-93
2022/05/16 13:31:33;;;;;;;0.40;0.20;;;26.20;61.10;;;;;;5068727;28;20485;-93
2022/05/16 13:34:10;;;;;;;0.40;0.20;;;26.00;64.80;;;;;;5077247;28;20518;-93
2022/05/16 13:36:43;;;;;;;0.40;0.20;;;26.00;66.50;;;;;;5079990;28;20499;-93
2022/05/16 13:39:14;;;;;;;0.40;0.20;;;25.40;62.40;;;;;;5069180;28;20494;-93
2022/05/16 13:41:41;;;;;;;0.40;0.20;;;24.90;62.40;;;;;;5085365;28;20424;-93
2022/05/16 13:44:13;;;;;;;0.40;0.20;;;24.60;66.60;;;;;;5088520;28;20443;-93
2022/05/16 13:46:40;;;;;;;0.40;0.20;;;24.50;70.70;;;;;;5093029;28;20447;-93
2022/05/16 13:49:10;;;;;;;0.40;0.20;;;24.50;68.80;;;;;;5093565;28;20459;-93
2022/05/16 13:51:45;;;;;;;0.40;0.20;;;24.40;70.70;;;;;;5090243;28;20470;-91
2022/05/16 13:54:16;;;;;;;0.40;0.20;;;24.40;70.20;;;;;;5100045;28;20474;-93
2022/05/16 13:56:48;;;;;;;0.40;0.20;;;24.30;72.90;;;;;;5090785;28;20502;-93